createdAt,value
2023-02-25T00:01:51.163Z,81.17
2023-02-25T00:06:01.567Z,80.53
2023-02-25T00:10:06.666Z,82.20
2023-02-25T00:14:11.640Z,79.90
2023-02-25T00:18:17.275Z,80.12
2023-02-25T00:22:21.345Z,83.81
2023-02-25T00:26:26.036Z,82.07
2023-02-25T00:30:33.648Z,82.23
2023-02-25T00:34:38.552Z,83.23
2023-02-25T00:38:43.198Z,82.47
2023-02-25T00:42:50.462Z,83.40
2023-02-25T00:46:55.003Z,85.15
2023-02-25T00:50:59.997Z,84.85
2023-02-25T00:55:04.345Z,83.89
2023-02-25T00:59:07.655Z,86.47
2023-02-25T01:03:10.824Z,86.91
2023-02-25T01:07:17.113Z,86.48
2023-02-25T01:11:29.556Z,86.71
2023-02-25T01:15:33.554Z,87.51
2023-02-25T01:19:37.535Z,86.92
2023-02-25T01:23:52.512Z,86.83
2023-02-25T01:27:56.918Z,86.82
2023-02-25T01:32:02.273Z,88.08
2023-02-25T01:36:09.215Z,87.46
2023-02-25T01:40:18.059Z,87.02
2023-02-25T01:44:23.603Z,87.72
2023-02-25T01:48:33.902Z,90.51
2023-02-25T01:52:39.490Z,89.19
2023-02-25T01:56:49.280Z,89.70
2023-02-25T02:00:55.719Z,89.23
2023-02-25T02:04:59.617Z,88.02
2023-02-25T02:09:10.960Z,90.33
2023-02-25T02:13:19.725Z,87.68
2023-02-25T02:17:30.288Z,88.61
2023-02-25T02:21:58.119Z,89.79
2023-02-25T02:26:39.772Z,88.00
2023-02-25T02:30:51.709Z,90.02
2023-02-25T02:35:04.467Z,89.90
2023-02-25T02:39:22.467Z,89.55
2023-02-25T02:43:37.891Z,87.86
2023-02-25T02:47:43.076Z,90.84
2023-02-25T02:51:53.971Z,89.58
2023-02-25T02:56:00.959Z,90.27
2023-02-25T03:00:14.043Z,89.11
2023-02-25T03:04:28.439Z,89.74
2023-02-25T03:08:36.276Z,86.92
2023-02-25T03:12:42.449Z,85.36
2023-02-25T03:16:59.662Z,85.73
2023-02-25T03:21:24.888Z,84.87
2023-02-25T03:25:32.254Z,84.67
2023-02-25T03:29:46.632Z,83.81
2023-02-25T03:33:57.117Z,83.09
2023-02-25T03:38:03.696Z,83.89
2023-02-25T03:42:22.932Z,82.42
2023-02-25T03:46:30.517Z,86.48
2023-02-25T03:50:37.709Z,87.07
2023-02-25T03:54:47.241Z,86.14
2023-02-25T04:04:16.847Z,83.84
2023-02-25T04:08:21.128Z,84.03
2023-02-25T04:12:24.859Z,84.75
2023-02-25T04:16:28.324Z,83.88
2023-02-25T04:20:37.139Z,82.64
2023-02-25T04:24:41.557Z,82.59
2023-02-25T04:28:45.484Z,82.98
2023-02-25T04:32:49.781Z,84.45
2023-02-25T04:36:55.285Z,84.78
2023-02-25T04:41:01.225Z,83.10
2023-02-25T04:45:05.950Z,86.12
2023-02-25T04:49:13.726Z,85.21
2023-02-25T04:53:19.266Z,85.25
2023-02-25T04:57:26.201Z,86.23
2023-02-25T05:01:30.483Z,86.33
2023-02-25T05:05:43.060Z,84.63
2023-02-25T05:09:55.601Z,83.77
2023-02-25T05:14:05.065Z,81.80
2023-02-25T05:18:09.136Z,83.65
2023-02-25T05:22:13.077Z,84.85
2023-02-25T05:26:22.642Z,82.59
2023-02-25T05:30:32.323Z,83.66
2023-02-25T05:34:37.378Z,84.15
2023-02-25T05:38:41.144Z,86.22
2023-02-25T05:42:49.655Z,86.62
2023-02-25T05:46:53.578Z,84.72
2023-02-25T05:51:02.961Z,85.17
2023-02-25T05:55:09.358Z,85.37
2023-02-25T05:59:16.864Z,83.82
2023-02-25T06:03:23.650Z,81.66
2023-02-25T06:07:33.482Z,81.04
2023-02-25T06:11:46.725Z,80.31
2023-02-25T06:15:51.432Z,80.99
2023-02-25T06:19:56.418Z,80.50
2023-02-25T06:24:05.536Z,79.71
2023-02-25T06:28:09.868Z,80.75
2023-02-25T06:32:15.665Z,80.26
2023-02-25T06:36:23.960Z,79.63
2023-02-25T06:40:28.557Z,79.75
2023-02-25T06:44:32.112Z,80.18
2023-02-25T06:48:39.730Z,80.80
2023-02-25T06:52:44.802Z,79.08
2023-02-25T06:56:51.228Z,79.69
2023-02-25T07:00:58.820Z,79.37
2023-02-25T07:05:06.482Z,80.98
2023-02-25T07:09:15.374Z,80.91
2023-02-25T07:13:19.003Z,80.38
2023-02-25T07:17:23.271Z,81.60
2023-02-25T07:21:29.941Z,81.17
2023-02-25T07:25:33.680Z,79.24
2023-02-25T07:29:45.118Z,77.91
2023-02-25T07:33:49.689Z,77.94
2023-02-25T07:38:01.737Z,77.92
2023-02-25T07:42:05.989Z,77.49
2023-02-25T07:46:10.252Z,77.68
2023-02-25T07:50:13.964Z,78.50
2023-02-25T07:54:21.644Z,78.01
2023-02-25T07:58:31.461Z,78.20
2023-02-25T08:02:35.991Z,79.01
2023-02-25T08:06:41.968Z,78.06
2023-02-25T08:10:47.653Z,79.25
2023-02-25T08:14:51.432Z,79.01
2023-02-25T08:18:55.472Z,79.74
2023-02-25T08:22:59.698Z,79.45
2023-02-25T08:27:07.887Z,78.84
2023-02-25T08:31:21.278Z,79.99
2023-02-25T08:35:26.186Z,79.28
2023-02-25T08:39:39.234Z,79.17
2023-02-25T08:43:44.655Z,79.36
2023-02-25T08:47:48.200Z,77.90
2023-02-25T08:51:53.110Z,78.30
2023-02-25T08:55:56.495Z,78.53
2023-02-25T09:00:05.879Z,77.17
2023-02-25T09:04:09.907Z,77.97
2023-02-25T09:08:15.254Z,78.20
2023-02-25T09:12:19.753Z,78.79
2023-02-25T09:16:30.661Z,78.25
2023-02-25T09:20:37.568Z,78.55
2023-02-25T09:24:41.863Z,77.46
2023-02-25T09:28:50.427Z,78.38
2023-02-25T09:32:56.202Z,77.66
2023-02-25T09:37:00.369Z,76.77
2023-02-25T09:41:04.757Z,77.36
2023-02-25T09:45:18.053Z,74.82
2023-02-25T09:49:28.177Z,73.87
2023-02-25T09:53:38.618Z,75.07
2023-02-25T09:57:47.249Z,74.27
2023-02-25T10:01:57.340Z,71.88
2023-02-25T10:06:06.728Z,72.20
2023-02-25T10:10:17.504Z,71.36
2023-02-25T10:14:38.412Z,69.72
2023-02-25T10:18:55.867Z,68.86
2023-02-25T10:23:08.815Z,68.36
2023-02-25T10:27:32.637Z,66.52
2023-02-25T10:31:38.221Z,65.83
2023-02-25T10:35:43.410Z,65.38
2023-02-25T10:39:58.630Z,63.88
2023-02-25T10:44:02.362Z,64.86
2023-02-25T10:48:10.122Z,62.63
2023-02-25T10:52:17.808Z,61.08
2023-02-25T10:56:23.335Z,61.08
2023-02-25T11:00:29.844Z,61.04
2023-02-25T11:04:38.400Z,64.02
2023-02-25T11:08:44.568Z,62.53
2023-02-25T11:12:50.786Z,65.08
2023-02-25T11:17:08.253Z,62.88
2023-02-25T11:21:14.562Z,63.25
2023-02-25T11:25:20.908Z,63.57
2023-02-25T11:29:33.371Z,64.65
2023-02-25T11:33:38.757Z,63.69
2023-02-25T11:37:45.520Z,62.72
2023-02-25T11:41:50.717Z,62.45
2023-02-25T11:45:57.606Z,59.20
2023-02-25T11:50:18.329Z,62.52
2023-02-25T11:54:27.162Z,63.59
2023-02-25T11:58:38.089Z,58.48
2023-02-25T12:02:51.985Z,59.60
2023-02-25T12:07:11.909Z,63.84
2023-02-25T12:12:06.047Z,61.34
2023-02-25T12:16:34.562Z,61.65
2023-02-25T12:21:15.559Z,62.50
2023-02-25T12:25:28.436Z,63.50
2023-02-25T12:29:43.104Z,63.21
2023-02-25T12:34:13.763Z,57.94
2023-02-25T12:38:37.451Z,58.12
2023-02-25T12:42:49.624Z,61.83
2023-02-25T12:47:04.228Z,56.62
2023-02-25T12:51:33.454Z,57.29
2023-02-25T12:55:46.193Z,59.61
2023-02-25T13:00:00.747Z,60.47
2023-02-25T13:04:30.006Z,64.33
2023-02-25T13:08:56.842Z,60.79
2023-02-25T13:13:13.510Z,59.98
2023-02-25T13:17:38.010Z,58.68
2023-02-25T13:21:51.837Z,60.45
2023-02-25T13:26:21.877Z,58.68
2023-02-25T13:30:37.161Z,56.05
2023-02-25T13:34:46.064Z,53.98
2023-02-25T13:39:06.305Z,56.56
2023-02-25T13:43:27.651Z,58.18
2023-02-25T13:47:42.857Z,60.54
2023-02-25T13:52:07.520Z,56.68
2023-02-25T13:56:28.501Z,56.88
2023-02-25T14:01:09.601Z,59.79
2023-02-25T14:05:39.076Z,59.29
2023-02-25T14:09:48.725Z,57.19
2023-02-25T14:14:22.904Z,57.19
2023-02-25T14:18:47.560Z,59.68
2023-02-25T14:22:53.789Z,62.05
2023-02-25T14:27:03.773Z,61.52
2023-02-25T14:31:14.260Z,59.74
2023-02-25T14:35:29.550Z,62.94
2023-02-25T14:39:44.656Z,59.06
2023-02-25T14:43:49.490Z,63.65
2023-02-25T14:47:58.596Z,61.89
2023-02-25T14:52:26.889Z,62.21
2023-02-25T14:56:57.129Z,63.33
2023-02-25T15:01:24.890Z,63.89
2023-02-25T15:05:50.938Z,65.57
2023-02-25T15:10:25.031Z,63.74
2023-02-25T15:14:48.168Z,60.92
2023-02-25T15:19:40.551Z,61.76
2023-02-25T15:23:51.026Z,66.54
2023-02-25T15:27:58.440Z,66.58
2023-02-25T15:32:18.050Z,67.53
2023-02-25T15:36:29.465Z,68.81
2023-02-25T15:40:46.466Z,69.58
2023-02-25T15:44:49.867Z,69.79
2023-02-25T15:49:06.274Z,70.25
2023-02-25T15:53:10.744Z,67.52
2023-02-25T15:57:38.072Z,67.15
2023-02-25T16:01:53.667Z,68.33
2023-02-25T16:06:02.385Z,67.60
2023-02-25T16:10:12.127Z,68.68
2023-02-25T16:14:20.144Z,67.17
2023-02-25T16:18:29.725Z,66.99
2023-02-25T16:22:44.939Z,69.83
2023-02-25T16:26:58.329Z,66.55
2023-02-25T16:31:04.908Z,65.65
2023-02-25T16:35:11.953Z,67.48
2023-02-25T16:39:20.572Z,68.70
2023-02-25T16:43:28.165Z,67.13
2023-02-25T16:47:33.371Z,67.04
2023-02-25T16:51:44.184Z,66.94
2023-02-25T16:55:50.010Z,69.29
2023-02-25T17:00:08.923Z,62.95
2023-02-25T17:04:21.074Z,67.75
2023-02-25T17:08:24.804Z,67.94
2023-02-25T17:12:32.213Z,66.37
2023-02-25T17:16:39.069Z,66.82
2023-02-25T17:20:43.516Z,67.56
2023-02-25T17:24:46.932Z,68.58
2023-02-25T17:28:54.184Z,68.51
2023-02-25T17:32:59.500Z,68.18
2023-02-25T17:37:06.226Z,68.72
2023-02-25T17:41:11.249Z,69.04
2023-02-25T17:45:44.590Z,68.60
2023-02-25T17:49:49.224Z,69.97
2023-02-25T17:54:01.264Z,72.20
2023-02-25T17:58:09.091Z,69.83
2023-02-25T18:02:46.056Z,70.86
2023-02-25T18:06:54.327Z,74.03
2023-02-25T18:11:04.215Z,75.86
2023-02-25T18:15:19.682Z,73.19
2023-02-25T18:19:33.828Z,72.24
2023-02-25T18:23:38.567Z,73.75
2023-02-25T18:27:49.423Z,76.21
2023-02-25T18:31:53.513Z,75.20
2023-02-25T18:36:00.393Z,76.85
2023-02-25T18:40:16.279Z,75.99
2023-02-25T18:44:23.212Z,78.76
2023-02-25T18:48:32.866Z,78.07
2023-02-25T18:52:38.284Z,79.35
2023-02-25T18:56:44.671Z,80.05
2023-02-25T19:00:50.127Z,78.10
2023-02-25T19:04:56.763Z,80.64
2023-02-25T19:09:06.458Z,82.10
2023-02-25T19:13:23.425Z,82.62
2023-02-25T19:17:27.133Z,81.86
2023-02-25T19:21:40.413Z,81.75
2023-02-25T19:25:46.665Z,84.20
2023-02-25T19:29:50.761Z,83.30
2023-02-25T19:33:54.440Z,85.08
2023-02-25T19:37:58.094Z,82.82
2023-02-25T19:42:04.699Z,80.46
2023-02-25T19:46:10.200Z,80.71
2023-02-25T19:50:14.836Z,80.46
2023-02-25T19:54:21.551Z,76.12
2023-02-25T19:58:26.329Z,75.35
2023-02-25T20:02:30.053Z,73.98
2023-02-25T20:06:35.143Z,74.51
2023-02-25T20:10:38.454Z,71.48
2023-02-25T20:14:43.286Z,70.51
2023-02-25T20:18:53.495Z,71.40
2023-02-25T20:22:56.974Z,69.21
2023-02-25T20:27:00.623Z,71.75
2023-02-25T20:31:12.596Z,69.20
2023-02-25T20:35:20.839Z,71.73
2023-02-25T20:39:49.425Z,69.07
2023-02-25T20:43:52.956Z,70.66
2023-02-25T20:47:58.245Z,70.35
2023-02-25T20:52:02.665Z,73.54
2023-02-25T20:56:06.987Z,73.98
2023-02-25T21:00:15.068Z,76.45
2023-02-25T21:04:21.007Z,76.40
2023-02-25T21:08:24.629Z,74.92
2023-02-25T21:12:28.242Z,70.92
2023-02-25T21:16:32.677Z,69.73
2023-02-25T21:20:37.836Z,74.61
2023-02-25T21:24:41.419Z,71.68
2023-02-25T21:28:46.224Z,72.51
2023-02-25T21:32:49.338Z,73.61
2023-02-25T21:36:54.590Z,71.77
2023-02-25T21:40:58.829Z,71.92
2023-02-25T21:45:02.428Z,74.83
2023-02-25T21:49:06.662Z,70.60
2023-02-25T21:53:11.445Z,73.14
2023-02-25T21:57:15.129Z,70.56
2023-02-25T22:01:20.338Z,72.43
2023-02-25T22:05:24.146Z,76.26
2023-02-25T22:09:29.062Z,73.62
2023-02-25T22:13:35.326Z,75.77
2023-02-25T22:17:38.745Z,76.45
2023-02-25T22:21:42.288Z,78.23
2023-02-25T22:25:48.895Z,74.36
2023-02-25T22:29:52.656Z,78.41
2023-02-25T22:33:57.577Z,77.06
2023-02-25T22:38:01.012Z,79.10
2023-02-25T22:42:05.895Z,80.19
2023-02-25T22:46:10.598Z,77.72
2023-02-25T22:50:14.190Z,80.14
2023-02-25T22:54:19.603Z,81.88
2023-02-25T22:58:24.628Z,82.54
2023-02-25T23:02:28.849Z,81.66
2023-02-25T23:06:43.487Z,80.57
2023-02-25T23:10:48.983Z,82.05
2023-02-25T23:14:55.063Z,82.61
2023-02-25T23:19:00.602Z,81.24
2023-02-25T23:23:05.891Z,83.24
2023-02-25T23:27:10.666Z,83.51
2023-02-25T23:31:36.828Z,82.14
2023-02-25T23:35:44.793Z,82.02
2023-02-25T23:39:48.973Z,81.84
2023-02-25T23:43:58.052Z,82.14
2023-02-25T23:48:03.454Z,83.30
2023-02-25T23:52:07.329Z,83.46
2023-02-25T23:56:24.779Z,82.29
